Time;durP1;ratioP1;P1;durP2;ratioP2;P2;SDS_P1;SDS_P2;PMS_P1;PMS_P2;Temp;Humidity;BMP_temperature;BMP_pressure;BME280_temperature;BME280_humidity;BME280_pressure;Samples;Min_cycle;Max_cycle;Signal;HPM_P1;HPM_P2
2022/06/04 04:56:15;;;;;;;;;24.00;22.75;;;;;19.60;67.81;101342.81;2387572;28;46103;-81
2022/06/04 04:57:25;;;;;;;;;27.50;24.25;;;;;19.60;68.00;101345.47;2399393;28;47300;-80
2022/06/04 04:58:37;;;;;;;;;23.50;21.75;;;;;19.61;68.04;101339.19;2393121;28;44880;-80
2022/06/04 04:59:47;;;;;;;;;22.25;22.25;;;;;19.61;68.17;101333.84;2391782;28;46279;-80
2022/06/04 05:00:57;;;;;;;;;22.00;20.00;;;;;19.63;68.27;101342.63;2393343;28;45178;-80
2022/06/04 05:02:08;;;;;;;;;23.50;22.75;;;;;19.64;67.70;101337.19;2393196;28;46270;-80
2022/06/04 05:03:18;;;;;;;;;24.25;22.50;;;;;19.65;67.72;101338.91;2393376;28;44604;-81
2022/06/04 05:04:28;;;;;;;;;23.50;20.25;;;;;19.66;68.05;101331.75;2391850;28;45561;-80
2022/06/04 05:05:39;;;;;;;;;23.75;22.00;;;;;19.66;67.61;101335.28;2393474;28;45206;-80
2022/06/04 05:06:49;;;;;;;;;28.75;24.50;;;;;19.66;68.01;101342.41;2401690;28;46760;-80
2022/06/04 05:07:59;;;;;;;;;24.75;23.75;;;;;19.65;67.79;101343.41;2399627;28;44714;-80
2022/06/04 05:09:10;;;;;;;;;27.25;23.75;;;;;19.65;67.99;101338.06;2387552;28;48255;-80
2022/06/04 05:10:21;;;;;;;;;26.75;18.25;;;;;19.65;68.01;101336.25;2394514;28;44804;-80
2022/06/04 05:11:32;;;;;;;;;23.00;22.00;;;;;19.64;67.93;101325.66;2399227;28;45255;-80
2022/06/04 05:12:43;;;;;;;;;16.75;16.50;;;;;19.64;66.24;101339.00;2401783;28;45311;-80
2022/06/04 05:13:54;;;;;;;;;18.75;18.25;;;;;19.63;66.92;101323.97;2399481;28;45505;-80
2022/06/04 05:15:06;;;;;;;;;17.50;17.50;;;;;19.64;66.17;101312.34;2392826;28;45608;-80
2022/06/04 05:16:22;;;;;;;;;25.75;25.00;;;;;19.64;67.49;101313.19;2392144;28;47666;-80
2022/06/04 05:17:33;;;;;;;;;21.25;20.25;;;;;19.66;67.68;101305.09;2390270;28;45559;-80
2022/06/04 05:18:43;;;;;;;;;26.50;23.25;;;;;19.68;67.92;101304.03;2395937;28;48235;-80
2022/06/04 05:19:54;;;;;;;;;25.50;22.25;;;;;19.69;67.64;101302.25;2392616;28;45301;-80
2022/06/04 05:21:19;;;;;;;;;22.50;22.00;;;;;19.72;67.86;101299.38;2386524;28;46117;-80
2022/06/04 05:22:29;;;;;;;;;25.50;23.75;;;;;19.74;68.02;101291.28;2388048;28;45364;-80
2022/06/04 05:23:39;;;;;;;;;22.50;20.00;;;;;19.75;67.60;101288.53;2392972;28;45360;-80
2022/06/04 05:24:50;;;;;;;;;23.75;21.50;;;;;19.75;68.06;101291.19;2393286;28;45325;-80
2022/06/04 05:26:00;;;;;;;;;25.50;21.25;;;;;19.78;68.30;101298.97;2393238;28;46953;-80
2022/06/04 05:27:10;;;;;;;;;23.50;20.50;;;;;19.82;67.61;101305.00;2394087;28;44609;-80
2022/06/04 05:28:21;;;;;;;;;29.75;27.50;;;;;19.81;67.48;101297.06;2390805;28;45368;-80
2022/06/04 05:29:33;;;;;;;;;23.50;22.25;;;;;19.83;67.52;101300.53;2392492;28;45389;-80
2022/06/04 05:30:43;;;;;;;;;23.25;21.75;;;;;19.84;67.68;101296.88;2392009;28;46226;-80
2022/06/04 05:31:54;;;;;;;;;25.50;24.50;;;;;19.85;67.82;101301.28;2400441;28;45402;-80
2022/06/04 05:33:04;;;;;;;;;24.75;23.00;;;;;19.85;67.57;101299.44;2391625;28;45295;-80
2022/06/04 05:34:18;;;;;;;;;23.50;23.25;;;;;19.86;67.71;101287.84;2393177;28;44569;-80
2022/06/04 05:35:28;;;;;;;;;27.75;23.50;;;;;19.85;67.43;101282.59;2393555;28;47161;-80
2022/06/04 05:36:39;;;;;;;;;28.00;22.75;;;;;19.85;67.66;101282.59;2394321;28;45313;-81
2022/06/04 05:37:49;;;;;;;;;22.50;20.50;;;;;19.84;67.80;101275.53;2394205;28;47697;-80
2022/06/04 05:38:59;;;;;;;;;21.25;18.50;;;;;19.84;67.71;101280.88;2387207;28;44688;-80
2022/06/04 05:40:10;;;;;;;;;25.00;23.25;;;;;19.84;67.97;101278.22;2386636;28;45319;-79
2022/06/04 05:41:20;;;;;;;;;30.75;24.50;;;;;19.85;67.65;101275.44;2397516;28;45328;-80
2022/06/04 05:42:31;;;;;;;;;25.00;23.50;;;;;19.87;67.83;101275.34;2400633;28;47143;-80
2022/06/04 05:43:42;;;;;;;;;24.25;23.25;;;;;19.88;68.05;101277.06;2391648;28;45369;-80
2022/06/04 05:44:52;;;;;;;;;24.50;22.75;;;;;19.92;68.00;101280.41;2390140;28;45494;-80
2022/06/04 05:46:06;;;;;;;;;27.50;22.75;;;;;19.93;67.90;101284.78;2399964;28;44755;-80
2022/06/04 05:47:17;;;;;;;;;27.50;24.75;;;;;19.94;67.81;101291.81;2395632;28;45516;-80
2022/06/04 05:48:27;;;;;;;;;24.50;20.75;;;;;19.94;68.01;101292.69;2385880;28;45222;-80
2022/06/04 05:49:38;;;;;;;;;22.00;20.75;;;;;19.96;67.88;101287.22;2393775;28;45182;-80
2022/06/04 05:50:49;;;;;;;;;23.50;21.50;;;;;19.98;67.92;101290.66;2394795;28;45218;-80
2022/06/04 05:52:00;;;;;;;;;28.00;26.25;;;;;19.98;67.79;101287.97;2394499;28;45612;-80
2022/06/04 05:53:10;;;;;;;;;26.25;25.00;;;;;19.98;67.26;101288.84;2393835;28;44746;-80
2022/06/04 05:54:20;;;;;;;;;25.25;22.75;;;;;19.97;67.68;101289.81;2394001;28;45319;-80
2022/06/04 05:55:31;;;;;;;;;27.75;23.25;;;;;19.98;67.72;101288.84;2394365;28;45420;-80
2022/06/04 05:56:44;;;;;;;;;24.75;24.75;;;;;19.99;67.59;101290.56;2392851;28;48185;-80
2022/06/04 05:57:56;;;;;;;;;27.75;25.00;;;;;20.00;67.74;101299.44;2394081;28;45446;-80
2022/06/04 05:59:10;;;;;;;;;26.25;23.25;;;;;20.01;67.71;101311.81;2394432;28;46571;-80
2022/06/04 06:00:20;;;;;;;;;24.00;21.25;;;;;20.00;67.71;101312.78;2393976;28;44747;-79
2022/06/04 06:01:32;;;;;;;;;24.00;22.25;;;;;20.02;67.49;101324.19;2393661;28;45412;-80
2022/06/04 06:02:43;;;;;;;;;26.75;21.50;;;;;20.01;67.33;101326.00;2393250;28;45257;-80
2022/06/04 06:03:54;;;;;;;;;20.00;17.00;;;;;20.02;67.23;101329.53;2391684;28;46191;-80
2022/06/04 06:05:05;;;;;;;;;24.25;24.25;;;;;20.01;67.30;101320.69;2394714;28;45187;-80
2022/06/04 06:06:24;;;;;;;;;26.50;22.00;;;;;20.04;67.74;101314.28;2392845;28;45373;-80
2022/06/04 06:07:34;;;;;;;;;22.00;18.00;;;;;20.07;67.42;101319.44;2394330;28;45263;-80
2022/06/04 06:08:45;;;;;;;;;20.75;20.75;;;;;20.08;67.36;101321.13;2394363;28;46441;-80
2022/06/04 06:09:55;;;;;;;;;27.25;23.25;;;;;20.10;67.11;101326.38;2394493;28;44764;-80
2022/06/04 06:11:11;;;;;;;;;23.25;19.50;;;;;20.11;67.27;101328.97;2392464;28;46399;-79
2022/06/04 06:12:22;;;;;;;;;21.00;20.00;;;;;20.13;67.23;101339.53;2385380;28;45214;-80
2022/06/04 06:13:32;;;;;;;;;21.25;20.75;;;;;20.14;67.13;101351.94;2393219;28;45364;-80
2022/06/04 06:14:43;;;;;;;;;19.50;18.00;;;;;20.15;67.48;101374.97;2394502;28;45343;-80
2022/06/04 06:15:53;;;;;;;;;19.00;19.00;;;;;20.16;67.23;101381.19;2401070;28;47044;-80
2022/06/04 06:17:04;;;;;;;;;19.50;16.00;;;;;20.17;67.04;101385.56;2398314;28;45289;-80
2022/06/04 06:18:14;;;;;;;;;16.00;15.00;;;;;20.17;66.12;101377.56;2400987;28;48147;-80
2022/06/04 06:19:25;;;;;;;;;17.00;16.50;;;;;20.18;66.43;101360.59;2400064;28;45232;-80
2022/06/04 06:20:36;;;;;;;;;18.25;17.50;;;;;20.20;66.53;101366.72;2393611;28;46227;-80
2022/06/04 06:21:46;;;;;;;;;16.25;15.50;;;;;20.18;66.24;101382.78;2385298;28;45280;-80
2022/06/04 06:22:57;;;;;;;;;23.25;20.75;;;;;20.18;66.63;101388.13;2390461;28;46478;-80
2022/06/04 06:24:10;;;;;;;;;19.25;17.50;;;;;20.20;66.79;101380.88;2395878;28;46868;-80
2022/06/04 06:25:20;;;;;;;;;17.50;17.50;;;;;20.21;65.85;101387.94;2395149;28;48337;-80
2022/06/04 06:26:33;;;;;;;;;23.50;20.75;;;;;20.22;66.73;101397.66;2386046;28;45415;-80
2022/06/04 06:27:43;;;;;;;;;21.25;21.00;;;;;20.23;66.68;101402.06;2392534;28;45447;-80
2022/06/04 06:28:54;;;;;;;;;27.25;21.50;;;;;20.26;66.86;101414.34;2402164;28;45508;-80
2022/06/04 06:30:05;;;;;;;;;27.50;25.75;;;;;20.27;66.72;101420.53;2392826;28;47358;-81
2022/06/04 06:31:19;;;;;;;;;24.50;23.25;;;;;20.25;66.79;101423.28;2385397;28;44727;-80
2022/06/04 06:32:29;;;;;;;;;25.50;23.50;;;;;20.22;66.90;101418.16;2392398;28;45481;-80
2022/06/04 06:33:40;;;;;;;;;25.75;23.75;;;;;20.20;66.91;101426.25;2393554;28;45179;-80
2022/06/04 06:34:51;;;;;;;;;23.00;22.75;;;;;20.18;66.82;101433.50;2392493;28;47098;-80
2022/06/04 06:36:05;;;;;;;;;28.25;24.50;;;;;20.19;66.82;101440.56;2391741;28;45543;-80
2022/06/04 06:37:16;;;;;;;;;26.75;24.50;;;;;20.20;67.13;101436.09;2401138;28;47783;-80
2022/06/04 06:38:28;;;;;;;;;24.50;23.50;;;;;20.21;67.30;101430.66;2399923;28;45482;-80
2022/06/04 06:39:38;;;;;;;;;27.00;23.25;;;;;20.21;67.13;101419.09;2392186;28;47076;-80
2022/06/04 06:40:49;;;;;;;;;27.50;25.50;;;;;20.22;67.02;101416.34;2385361;28;45436;-80
2022/06/04 06:41:59;;;;;;;;;29.75;25.50;;;;;20.23;67.33;101407.38;2384493;28;46642;-80
2022/06/04 06:43:09;;;;;;;;;22.25;19.75;;;;;20.24;67.24;101398.44;2385383;28;45438;-80
2022/06/04 06:44:22;;;;;;;;;24.50;21.75;;;;;20.27;67.58;101400.06;2391326;28;45647;-80
2022/06/04 06:45:32;;;;;;;;;26.75;25.50;;;;;20.27;66.96;101402.72;2392429;28;44840;-80
2022/06/04 06:46:47;;;;;;;;;17.25;15.50;;;;;20.28;67.01;101406.22;2390809;28;45356;-80
2022/06/04 06:47:58;;;;;;;;;26.00;24.25;;;;;20.29;67.18;101402.63;2391616;28;45146;-80
2022/06/04 06:49:22;;;;;;;;;25.50;24.75;;;;;20.29;66.95;101414.16;2392582;28;45597;-80
2022/06/04 06:50:32;;;;;;;;;21.25;21.25;;;;;20.29;67.30;101411.47;2401126;28;45441;-80
2022/06/04 06:51:49;;;;;;;;;27.25;24.50;;;;;20.31;67.04;101412.25;2395535;28;45518;-80
2022/06/04 06:52:59;;;;;;;;;20.50;16.50;;;;;20.31;67.02;101412.25;2389469;28;45427;-80
2022/06/04 06:54:10;;;;;;;;;26.25;26.25;;;;;20.32;66.61;101413.09;2385527;28;48440;-80
2022/06/04 06:55:21;;;;;;;;;29.00;25.75;;;;;20.31;67.16;101401.56;2392623;28;44723;-80
2022/06/04 06:56:34;;;;;;;;;27.00;26.00;;;;;20.33;66.84;101404.13;2392977;28;46250;-80
2022/06/04 06:57:45;;;;;;;;;25.25;22.00;;;;;20.33;66.95;101406.78;2393215;28;45427;-80
2022/06/04 06:58:57;;;;;;;;;20.25;19.25;;;;;20.34;67.33;101396.03;2389933;28;46717;-80
2022/06/04 07:00:08;;;;;;;;;23.50;20.25;;;;;20.35;67.46;101399.53;2390637;28;45258;-79
2022/06/04 07:01:18;;;;;;;;;26.50;26.50;;;;;20.35;67.07;101397.72;2390702;28;46202;-80
2022/06/04 07:02:29;;;;;;;;;27.75;25.75;;;;;20.36;67.50;101398.59;2389004;28;45246;-80
2022/06/04 07:03:40;;;;;;;;;23.00;23.00;;;;;20.38;67.42;101395.81;2386261;28;47369;-80
2022/06/04 07:04:51;;;;;;;;;25.75;22.75;;;;;20.38;67.50;101386.00;2393489;28;45325;-80
2022/06/04 07:06:02;;;;;;;;;26.50;25.00;;;;;20.37;67.57;101378.09;2392264;28;47294;-80
2022/06/04 07:07:12;;;;;;;;;21.75;20.75;;;;;20.38;67.05;101383.34;2393596;28;45296;-80
2022/06/04 07:08:23;;;;;;;;;28.50;25.50;;;;;20.39;67.40;101371.72;2392999;28;46449;-80
2022/06/04 07:09:37;;;;;;;;;25.00;25.00;;;;;20.41;67.21;101379.59;2400677;28;45458;-80
2022/06/04 07:10:48;;;;;;;;;25.50;24.50;;;;;20.41;67.31;101368.94;2398790;28;45673;-80
2022/06/04 07:12:00;;;;;;;;;22.75;20.75;;;;;20.42;67.48;101368.81;2388451;28;45456;-80
2022/06/04 07:13:10;;;;;;;;;30.50;25.75;;;;;20.43;67.44;101372.34;2393278;28;45638;-80
2022/06/04 07:14:22;;;;;;;;;25.75;23.75;;;;;20.44;67.36;101368.75;2393831;28;45315;-81
2022/06/04 07:15:33;;;;;;;;;26.25;22.00;;;;;20.45;67.61;101365.09;2387069;28;46478;-80
2022/06/04 07:16:43;;;;;;;;;30.75;24.50;;;;;20.45;67.66;101365.09;2387106;28;44802;-80
2022/06/04 07:17:54;;;;;;;;;15.00;12.75;;;;;20.45;65.88;101368.63;2393518;28;45529;-80
2022/06/04 07:19:05;;;;;;;;;15.00;15.00;;;;;20.46;65.29;101375.69;2401571;28;45483;-81
2022/06/04 07:20:15;;;;;;;;;14.75;14.50;;;;;20.49;64.76;101379.09;2399431;28;48065;-81
2022/06/04 07:21:27;;;;;;;;;13.75;13.75;;;;;20.50;64.70;101383.47;2393843;28;45317;-80
2022/06/04 07:22:37;;;;;;;;;15.75;15.75;;;;;20.51;65.24;101380.72;2402503;28;47858;-80
2022/06/04 07:23:48;;;;;;;;;27.25;25.25;;;;;20.53;65.83;101378.81;2398538;28;44805;-80
2022/06/04 07:24:59;;;;;;;;;13.50;13.50;;;;;20.54;64.95;101369.84;2393216;28;44906;-80
2022/06/04 07:26:11;;;;;;;;;15.25;15.25;;;;;20.56;65.09;101367.06;2393946;28;45337;-80
2022/06/04 07:27:22;;;;;;;;;16.75;15.00;;;;;20.60;65.38;101371.25;2392184;28;45487;-80
2022/06/04 07:28:33;;;;;;;;;26.25;25.75;;;;;20.61;66.55;101374.78;2394022;28;45355;-80
2022/06/04 07:29:43;;;;;;;;;25.50;24.25;;;;;20.66;66.55;101380.66;2393863;28;45622;-81
2022/06/04 07:30:54;;;;;;;;;21.25;17.75;;;;;20.68;65.82;101384.97;2401995;28;45225;-80
2022/06/04 07:32:05;;;;;;;;;24.25;23.75;;;;;20.71;65.01;101386.56;2398941;28;46234;-80
2022/06/04 07:33:15;;;;;;;;;28.50;26.75;;;;;20.76;65.03;101388.94;2401788;28;45325;-80
2022/06/04 07:34:26;;;;;;;;;16.75;15.00;;;;;20.78;65.41;101376.31;2394433;28;45248;-80
2022/06/04 07:35:36;;;;;;;;;29.50;28.75;;;;;20.86;66.31;101389.19;2386086;28;45239;-81
2022/06/04 07:36:47;;;;;;;;;28.50;27.25;;;;;20.89;66.40;101380.97;2392779;28;48032;-81
2022/06/04 07:37:57;;;;;;;;;26.00;22.75;;;;;20.94;66.49;101383.31;2393444;28;45314;-81
2022/06/04 07:39:09;;;;;;;;;18.75;17.00;;;;;20.97;64.42;101370.59;2393227;28;45349;-81
2022/06/04 07:40:19;;;;;;;;;18.00;17.25;;;;;21.02;63.93;101375.66;2385098;28;45356;-81
2022/06/04 07:41:36;;;;;;;;;19.00;17.50;;;;;21.04;64.50;101376.41;2389828;28;45484;-81
2022/06/04 07:42:47;;;;;;;;;23.25;19.00;;;;;21.10;65.16;101376.00;2392251;28;44806;-81
2022/06/04 07:43:58;;;;;;;;;23.00;22.25;;;;;21.14;65.44;101380.16;2393610;28;45590;-81
2022/06/04 07:45:09;;;;;;;;;19.75;18.50;;;;;21.19;65.95;101387.00;2392976;28;45302;-83
2022/06/04 07:46:21;;;;;;;;;21.75;20.50;;;;;21.23;65.65;101391.22;2393107;28;47606;-81
2022/06/04 07:47:34;;;;;;;;;23.50;22.00;;;;;21.29;65.40;101401.47;2392483;28;45322;-81
2022/06/04 07:48:44;;;;;;;;;29.00;23.75;;;;;21.33;65.68;101399.44;2392628;28;45520;-81
2022/06/04 07:49:55;;;;;;;;;15.75;14.75;;;;;21.36;62.98;101399.22;2401745;28;44867;-80
2022/06/04 07:51:06;;;;;;;;;21.50;18.75;;;;;21.40;62.92;101397.19;2396853;28;45415;-81
2022/06/04 07:52:16;;;;;;;;;16.00;14.75;;;;;21.44;63.13;101396.88;2387869;28;44623;-81
2022/06/04 07:53:27;;;;;;;;;20.00;20.00;;;;;21.49;63.27;101391.22;2392920;28;45312;-81
2022/06/04 07:54:38;;;;;;;;;16.50;16.00;;;;;21.54;63.42;101383.72;2393774;28;44641;-81
2022/06/04 07:55:49;;;;;;;;;21.75;18.75;;;;;21.58;62.34;101376.34;2392790;28;45434;-80
2022/06/04 07:56:59;;;;;;;;;19.50;19.50;;;;;21.63;63.93;101376.03;2393230;28;45582;-81
2022/06/04 07:58:10;;;;;;;;;27.00;25.25;;;;;21.66;63.73;101376.66;2388947;28;48102;-81
2022/06/04 07:59:20;;;;;;;;;27.00;25.25;;;;;21.72;64.23;101380.72;2393379;28;44707;-81
2022/06/04 08:00:30;;;;;;;;;22.75;22.00;;;;;21.75;64.43;101385.00;2385356;28;46408;-81
2022/06/04 08:01:41;;;;;;;;;20.00;18.75;;;;;21.77;64.04;101389.28;2392139;28;45332;-81
2022/06/04 08:02:51;;;;;;;;;22.50;19.50;;;;;21.83;62.47;101377.28;2390435;28;46426;-81
2022/06/04 08:04:02;;;;;;;;;28.25;27.00;;;;;21.86;63.44;101370.84;2389876;28;44832;-81
2022/06/04 08:05:13;;;;;;;;;21.75;18.00;;;;;21.89;63.38;101365.31;2393527;28;45323;-81
2022/06/04 08:06:24;;;;;;;;;18.25;17.25;;;;;21.94;61.99;101360.50;2392835;28;45170;-81
2022/06/04 08:07:36;;;;;;;;;31.50;28.25;;;;;21.98;63.66;101369.13;2392987;28;45344;-81
2022/06/04 08:08:52;;;;;;;;;23.50;20.00;;;;;22.01;63.13;101375.16;2392041;28;45485;-81
2022/06/04 08:10:03;;;;;;;;;27.25;25.50;;;;;22.04;63.34;101374.06;2384252;28;45536;-80
2022/06/04 08:11:32;;;;;;;;;23.25;20.00;;;;;22.07;62.68;101367.63;2392826;28;45250;-80
2022/06/04 08:12:45;;;;;;;;;23.75;22.00;;;;;22.09;63.23;101366.56;2388224;28;45501;-80
2022/06/04 08:13:55;;;;;;;;;23.50;21.75;;;;;22.11;63.42;101369.97;2390566;28;45201;-80
2022/06/04 08:15:06;;;;;;;;;20.25;18.75;;;;;22.11;62.34;101356.59;2386676;28;45319;-81
2022/06/04 08:16:17;;;;;;;;;22.00;21.25;;;;;22.17;61.82;101360.66;2388175;28;45154;-80
2022/06/04 08:17:30;;;;;;;;;19.50;16.75;;;;;22.20;61.35;101357.72;2398894;28;48395;-81
2022/06/04 08:18:40;;;;;;;;;22.75;19.50;;;;;22.25;61.29;101360.06;2403285;28;46775;-81
2022/06/04 08:19:51;;;;;;;;;24.75;19.25;;;;;22.26;60.79;101351.94;2393240;28;45483;-80
2022/06/04 08:21:05;;;;;;;;;25.50;21.25;;;;;22.31;61.87;101362.31;2393378;28;45558;-80
2022/06/04 08:22:15;;;;;;;;;21.75;20.00;;;;;22.35;62.54;101361.09;2393372;28;46575;-81
2022/06/04 08:23:26;;;;;;;;;23.50;22.25;;;;;22.39;62.84;101356.41;2393486;28;45198;-80
2022/06/04 08:24:36;;;;;;;;;22.25;19.75;;;;;22.41;61.98;101359.81;2392705;28;45254;-80
2022/06/04 08:25:50;;;;;;;;;17.75;17.75;;;;;22.46;62.24;101368.38;2393314;28;45218;-80
2022/06/04 08:27:02;;;;;;;;;19.00;17.25;;;;;22.49;62.52;101362.75;2392510;28;45411;-80
2022/06/04 08:28:16;;;;;;;;;24.50;20.00;;;;;22.52;61.84;101361.66;2391630;28;45674;-80
2022/06/04 08:29:30;;;;;;;;;16.00;15.25;;;;;22.55;61.79;101368.63;2392663;28;45622;-80
2022/06/04 08:30:41;;;;;;;;;21.25;18.25;;;;;22.58;61.75;101365.72;2399281;28;44861;-80
2022/06/04 08:31:52;;;;;;;;;17.75;17.75;;;;;22.60;61.23;101364.66;2399908;28;46939;-80
2022/06/04 08:33:03;;;;;;;;;21.50;19.00;;;;;22.61;60.33;101368.19;2398616;28;45334;-80
2022/06/04 08:34:13;;;;;;;;;20.25;18.50;;;;;22.63;60.44;101368.06;2401037;28;46074;-80
2022/06/04 08:35:24;;;;;;;;;17.25;17.25;;;;;22.63;60.69;101371.59;2402683;28;44821;-80
2022/06/04 08:36:34;;;;;;;;;21.50;19.75;;;;;22.63;61.01;101368.06;2398778;28;45608;-80
2022/06/04 08:37:45;;;;;;;;;18.50;17.00;;;;;22.62;60.66;101367.19;2393357;28;45268;-80
2022/06/04 08:38:55;;;;;;;;;21.75;17.25;;;;;22.62;61.17;101367.19;2393220;28;45309;-80
2022/06/04 08:40:06;;;;;;;;;17.75;16.25;;;;;22.62;59.99;101361.00;2392836;28;45158;-80
2022/06/04 08:41:45;;;;;;;;;19.50;17.25;;;;;22.64;60.71;101367.97;2401520;28;47300;-80
2022/06/04 08:43:12;;;;;;;;;15.25;13.50;;;;;22.64;60.43;101365.28;2396103;28;45285;-80
2022/06/04 08:44:29;;;;;;;;;18.50;16.75;;;;;22.68;60.83;101376.59;2392333;28;47145;-80
2022/06/04 08:45:40;;;;;;;;;19.25;18.75;;;;;22.69;60.38;101370.31;2392100;28;45324;-81
2022/06/04 08:47:00;;;;;;;;;17.75;15.50;;;;;22.70;61.07;101375.56;2392484;28;46016;-80
2022/06/04 08:48:19;;;;;;;;;15.50;14.75;;;;;22.73;60.05;101376.28;2392717;28;45254;-81
2022/06/04 08:49:48;;;;;;;;;19.50;19.00;;;;;22.74;60.60;101372.66;2392818;28;45353;-81
2022/06/04 08:50:59;;;;;;;;;20.75;19.25;;;;;22.76;60.96;101376.06;2392207;28;45272;-80
2022/06/04 08:52:20;;;;;;;;;18.50;18.00;;;;;22.77;60.68;101364.38;2392871;28;45523;-81
2022/06/04 08:53:30;;;;;;;;;15.25;15.25;;;;;22.81;61.17;101376.59;2392648;28;44786;-80
2022/06/04 08:58:04;;;;;;;;;20.00;15.75;;;;;22.84;59.64;101383.53;2392829;28;45824;-80
2022/06/04 08:59:40;;;;;;;;;21.25;19.25;;;;;22.87;59.66;101385.97;2393796;28;44645;-80
2022/06/04 09:01:04;;;;;;;;;16.75;16.50;;;;;22.87;60.49;101386.81;2394665;28;45489;-80
2022/06/04 09:02:29;;;;;;;;;18.75;17.50;;;;;22.88;60.35;101388.53;2404523;28;45180;-80
2022/06/04 09:03:48;;;;;;;;;23.75;21.00;;;;;22.91;60.46;101393.69;2398233;28;45698;-80
2022/06/04 09:05:27;;;;;;;;;20.50;19.50;;;;;22.92;60.06;101384.66;2392527;28;45388;-80
2022/06/04 09:07:04;;;;;;;;;18.00;16.75;;;;;22.91;59.63;101388.31;2385707;28;48058;-80
2022/06/04 09:08:37;;;;;;;;;24.50;22.50;;;;;22.93;60.09;101391.72;2400014;28;45305;-80
2022/06/04 09:10:13;;;;;;;;;21.25;20.75;;;;;22.97;60.06;101386.97;2389147;28;46636;-81
2022/06/04 09:11:54;;;;;;;;;20.75;20.00;;;;;23.00;59.69;101389.44;2394208;28;45325;-80
2022/06/04 09:13:17;;;;;;;;;15.00;13.25;;;;;23.02;59.77;101381.25;2388028;28;45304;-80
2022/06/04 09:14:34;;;;;;;;;19.50;17.75;;;;;23.03;59.97;101391.88;2385799;28;44643;-80
2022/06/04 09:15:53;;;;;;;;;20.25;20.25;;;;;23.07;59.18;101392.50;2388645;28;45323;-80
2022/06/04 09:17:14;;;;;;;;;15.00;14.00;;;;;23.07;58.07;101389.81;2393492;28;44754;-80
2022/06/04 09:18:33;;;;;;;;;19.75;18.00;;;;;23.09;59.41;101395.91;2394028;28;45492;-78
2022/06/04 09:19:51;;;;;;;;;19.00;19.00;;;;;23.08;58.70;101391.53;2394873;28;45229;-80
2022/06/04 09:21:05;;;;;;;;;20.00;18.25;;;;;23.09;59.57;101384.34;2394207;28;45411;-80
2022/06/04 09:22:23;;;;;;;;;23.25;19.50;;;;;23.12;59.78;101392.13;2403582;28;45253;-80
2022/06/04 09:23:35;;;;;;;;;20.75;18.00;;;;;23.16;59.42;101386.41;2391966;28;46466;-80
2022/06/04 09:24:46;;;;;;;;;19.50;17.00;;;;;23.18;58.64;101393.50;2385210;28;44621;-80
2022/06/04 09:26:15;;;;;;;;;19.00;17.75;;;;;23.20;58.57;101388.88;2385548;28;46109;-81
2022/06/04 09:27:51;;;;;;;;;18.50;15.75;;;;;23.23;57.94;101397.53;2394192;28;45171;-80
2022/06/04 09:29:51;;;;;;;;;18.00;16.00;;;;;23.24;58.18;101391.19;2393926;28;47311;-79
2022/06/04 09:31:07;;;;;;;;;21.50;21.50;;;;;23.25;58.37;101394.72;2383222;28;45273;-79
2022/06/04 09:32:20;;;;;;;;;19.50;17.50;;;;;23.25;58.73;101392.91;2385374;28;46529;-80
2022/06/04 09:33:33;;;;;;;;;21.50;18.25;;;;;23.26;58.57;101391.91;2395836;28;45519;-79
2022/06/04 09:34:53;;;;;;;;;18.00;17.75;;;;;23.29;57.91;101392.66;2392026;28;46363;-81
2022/06/04 09:36:04;;;;;;;;;19.00;17.75;;;;;23.31;58.40;101394.25;2390856;28;44687;-80
2022/06/04 09:37:14;;;;;;;;;16.50;15.25;;;;;23.32;57.97;101395.09;2385301;28;45542;-80
2022/06/04 09:38:29;;;;;;;;;20.50;18.00;;;;;23.36;58.21;101399.28;2391184;28;45412;-79
2022/06/04 09:39:43;;;;;;;;;20.50;19.50;;;;;23.36;57.86;101400.09;2392436;28;45410;-80
2022/06/04 09:41:18;;;;;;;;;21.75;20.00;;;;;23.38;58.31;101395.47;2385082;28;44821;-78
2022/06/04 09:42:31;;;;;;;;;18.50;16.75;;;;;23.42;58.65;101384.50;2398260;28;47812;-78
2022/06/04 09:43:41;;;;;;;;;18.75;17.50;;;;;23.46;58.56;101385.97;2401442;28;45327;-78
2022/06/04 09:44:51;;;;;;;;;21.50;17.25;;;;;23.49;58.75;101393.81;2384555;28;47137;-78
2022/06/04 09:46:06;;;;;;;;;21.75;19.00;;;;;23.53;58.31;101387.25;2389137;28;44614;-77
2022/06/04 09:47:21;;;;;;;;;22.25;17.75;;;;;23.56;58.25;101396.88;2397516;28;47382;-77
2022/06/04 09:48:35;;;;;;;;;18.00;16.00;;;;;23.59;58.11;101386.75;2393577;28;45205;-78
2022/06/04 09:49:59;;;;;;;;;17.50;15.50;;;;;23.63;58.36;101381.16;2396662;28;46827;-77
2022/06/04 09:51:25;;;;;;;;;12.50;12.25;;;;;23.66;58.07;101386.25;2394069;28;44773;-77
2022/06/04 09:52:41;;;;;;;;;15.25;14.50;;;;;23.70;57.90;101379.69;2389116;28;47256;-78
2022/06/04 09:54:05;;;;;;;;;9.25;9.00;;;;;23.74;58.11;101391.03;2396899;28;45320;-78
2022/06/04 09:55:22;;;;;;;;;15.75;13.75;;;;;23.77;57.75;101385.44;2398686;28;45570;-78
2022/06/04 09:56:38;;;;;;;;;16.25;12.75;;;;;23.82;57.77;101386.78;2393701;28;44674;-78
2022/06/04 09:58:17;;;;;;;;;15.50;15.50;;;;;23.88;57.43;101384.59;2396830;28;48384;-78
2022/06/04 09:59:30;;;;;;;;;13.75;13.25;;;;;23.92;57.62;101391.41;2397469;28;45186;-78
2022/06/04 10:01:01;;;;;;;;;17.25;15.50;;;;;23.97;57.35;101385.66;2394914;28;46789;-79
2022/06/04 10:02:11;;;;;;;;;16.00;14.00;;;;;24.02;57.71;101395.06;2393852;28;45455;-77
2022/06/04 10:03:22;;;;;;;;;16.75;15.75;;;;;24.04;57.21;101390.41;2395350;28;45570;-77
2022/06/04 10:04:46;;;;;;;;;16.25;13.00;;;;;24.09;56.98;101391.88;2403061;28;45317;-78
2022/06/04 10:06:11;;;;;;;;;15.75;15.00;;;;;24.13;57.16;101385.25;2398723;28;47038;-78
2022/06/04 10:07:30;;;;;;;;;19.25;16.50;;;;;24.16;56.79;101382.34;2388455;28;46640;-77
2022/06/04 10:10:26;;;;;;;;;16.50;14.75;;;;;24.22;56.88;101386.38;2384668;28;44596;-78
2022/06/04 10:11:47;;;;;;;;;13.50;13.50;;;;;24.24;57.00;101389.78;2392059;28;45541;-77
2022/06/04 10:14:34;;;;;;;;;14.50;14.00;;;;;24.32;57.16;101386.50;2394456;28;45175;-77
2022/06/04 10:15:47;;;;;;;;;17.00;14.50;;;;;24.37;56.66;101386.97;2403176;28;45356;-76
2022/06/04 10:16:58;;;;;;;;;17.25;15.50;;;;;24.40;56.37;101381.31;2400157;28;45443;-76
2022/06/04 10:18:22;;;;;;;;;16.75;16.75;;;;;24.45;55.67;101381.81;2393459;28;45396;-76
2022/06/04 10:19:34;;;;;;;;;18.00;15.00;;;;;24.48;55.93;101380.69;2394366;28;46221;-77
2022/06/04 10:21:05;;;;;;;;;13.75;13.75;;;;;24.53;56.38;101377.63;2394429;28;45448;-77
2022/06/04 10:22:15;;;;;;;;;15.00;14.00;;;;;24.55;55.93;101379.19;2393719;28;47887;-76
2022/06/04 10:23:29;;;;;;;;;11.75;10.75;;;;;24.60;55.95;101381.50;2392594;28;45260;-77
2022/06/04 10:24:57;;;;;;;;;13.50;13.50;;;;;24.66;56.06;101375.63;2394381;28;46199;-76
2022/06/04 10:26:20;;;;;;;;;11.25;10.25;;;;;24.71;55.37;101384.16;2394314;28;44599;-76
2022/06/04 10:27:52;;;;;;;;;15.50;15.50;;;;;24.73;54.96;101381.34;2394591;28;46595;-77
2022/06/04 10:29:26;;;;;;;;;16.75;15.00;;;;;24.76;54.94;101375.72;2385301;28;45261;-76
2022/06/04 10:30:55;;;;;;;;;16.00;14.25;;;;;24.81;54.62;101373.50;2393138;28;46259;-76
2022/06/04 10:32:23;;;;;;;;;15.25;15.25;;;;;24.84;54.94;101370.53;2393434;28;44763;-76
2022/06/04 10:33:45;;;;;;;;;18.00;16.00;;;;;24.89;54.99;101372.00;2402244;28;47016;-76
2022/06/04 10:34:58;;;;;;;;;15.25;15.25;;;;;24.90;54.36;101374.53;2399218;28;44636;-77
2022/06/04 10:36:28;;;;;;;;;14.00;13.50;;;;;24.94;54.60;101361.69;2402717;28;47414;-76
2022/06/04 10:38:01;;;;;;;;;13.25;12.25;;;;;24.98;54.86;101375.72;2391258;28;45194;-78
2022/06/04 10:39:24;;;;;;;;;14.00;14.00;;;;;25.00;54.36;101365.72;2393451;28;47504;-77
2022/06/04 10:40:43;;;;;;;;;14.25;12.50;;;;;25.02;54.53;101366.44;2389600;28;44672;-78